sensor_id;sensor_type;location;lat;lon;timestamp;temperature;humidity
23813;DHT22;12087;45.190;5.688;2024-01-15T02:29:31;4.20;99.90
23813;DHT22;12087;45.190;5.688;2024-01-15T02:34:53;4.20;99.90
23813;DHT22;12087;45.190;5.688;2024-01-15T02:40:16;4.30;99.90
23813;DHT22;12087;45.190;5.688;2024-01-15T02:45:40;4.30;99.90
23813;DHT22;12087;45.190;5.688;2024-01-15T02:51:03;4.30;99.90
23813;DHT22;12087;45.190;5.688;2024-01-15T02:56:25;4.20;99.90
23813;DHT22;12087;45.190;5.688;2024-01-15T03:01:48;4.20;99.90
23813;DHT22;12087;45.190;5.688;2024-01-15T03:07:11;4.20;99.90
23813;DHT22;12087;45.190;5.688;2024-01-15T03:12:33;4.10;99.90
23813;DHT22;12087;45.190;5.688;2024-01-15T03:17:56;4.20;99.90
23813;DHT22;12087;45.190;5.688;2024-01-15T03:23:19;4.20;99.90
23813;DHT22;12087;45.190;5.688;2024-01-15T03:28:41;4.20;99.90
23813;DHT22;12087;45.190;5.688;2024-01-15T03:34:04;4.30;99.90
23813;DHT22;12087;45.190;5.688;2024-01-15T03:39:27;4.30;99.90
23813;DHT22;12087;45.190;5.688;2024-01-15T03:44:49;4.30;99.90
23813;DHT22;12087;45.190;5.688;2024-01-15T03:50:14;4.30;99.90
23813;DHT22;12087;45.190;5.688;2024-01-15T03:55:36;4.40;99.90
23813;DHT22;12087;45.190;5.688;2024-01-15T04:00:58;4.40;99.90
23813;DHT22;12087;45.190;5.688;2024-01-15T04:06:21;4.40;99.90
23813;DHT22;12087;45.190;5.688;2024-01-15T04:11:44;4.40;99.90
23813;DHT22;12087;45.190;5.688;2024-01-15T04:17:06;4.30;99.90
23813;DHT22;12087;45.190;5.688;2024-01-15T04:22:29;4.30;99.90
23813;DHT22;12087;45.190;5.688;2024-01-15T04:27:52;4.30;99.90
23813;DHT22;12087;45.190;5.688;2024-01-15T05:06:41;4.30;99.90
23813;DHT22;12087;45.190;5.688;2024-01-15T05:12:04;4.40;99.90
23813;DHT22;12087;45.190;5.688;2024-01-15T05:17:26;4.30;99.90
23813;DHT22;12087;45.190;5.688;2024-01-15T05:22:50;4.40;99.90
23813;DHT22;12087;45.190;5.688;2024-01-15T05:28:12;4.40;99.90
23813;DHT22;12087;45.190;5.688;2024-01-15T05:33:34;4.30;99.90
23813;DHT22;12087;45.190;5.688;2024-01-15T06:04:33;4.40;99.90
23813;DHT22;12087;45.190;5.688;2024-01-15T06:09:55;4.30;99.90
23813;DHT22;12087;45.190;5.688;2024-01-15T06:15:18;4.30;99.90
23813;DHT22;12087;45.190;5.688;2024-01-15T06:20:41;4.40;99.90
23813;DHT22;12087;45.190;5.688;2024-01-15T06:26:04;4.40;99.90
23813;DHT22;12087;45.190;5.688;2024-01-15T06:31:26;4.30;99.90
23813;DHT22;12087;45.190;5.688;2024-01-15T06:36:50;4.30;99.90
23813;DHT22;12087;45.190;5.688;2024-01-15T06:42:12;4.40;99.90
23813;DHT22;12087;45.190;5.688;2024-01-15T06:47:34;4.40;99.90
23813;DHT22;12087;45.190;5.688;2024-01-15T06:52:57;4.40;99.90
23813;DHT22;12087;45.190;5.688;2024-01-15T06:58:20;4.40;99.90
23813;DHT22;12087;45.190;5.688;2024-01-15T07:03:42;4.40;99.90
23813;DHT22;12087;45.190;5.688;2024-01-15T07:09:05;4.30;99.90
23813;DHT22;12087;45.190;5.688;2024-01-15T07:14:29;4.40;99.90
23813;DHT22;12087;45.190;5.688;2024-01-15T07:19:51;4.40;99.90
23813;DHT22;12087;45.190;5.688;2024-01-15T07:25:15;4.40;99.90
23813;DHT22;12087;45.190;5.688;2024-01-15T07:30:37;4.40;99.90
23813;DHT22;12087;45.190;5.688;2024-01-15T07:36:00;4.40;99.90
23813;DHT22;12087;45.190;5.688;2024-01-15T07:41:25;4.40;99.90
23813;DHT22;12087;45.190;5.688;2024-01-15T07:46:47;4.40;99.90
23813;DHT22;12087;45.190;5.688;2024-01-15T07:52:09;4.40;99.90
23813;DHT22;12087;45.190;5.688;2024-01-15T07:57:52;4.50;99.90
23813;DHT22;12087;45.190;5.688;2024-01-15T08:03:13;4.50;99.90
23813;DHT22;12087;45.190;5.688;2024-01-15T08:08:36;4.50;99.90
23813;DHT22;12087;45.190;5.688;2024-01-15T08:14:00;4.50;99.90
23813;DHT22;12087;45.190;5.688;2024-01-15T08:19:22;4.50;99.90
23813;DHT22;12087;45.190;5.688;2024-01-15T08:24:45;4.50;99.90
23813;DHT22;12087;45.190;5.688;2024-01-15T08:30:10;4.60;99.90
23813;DHT22;12087;45.190;5.688;2024-01-15T08:35:32;4.50;99.90
23813;DHT22;12087;45.190;5.688;2024-01-15T08:40:56;4.60;99.90
23813;DHT22;12087;45.190;5.688;2024-01-15T08:46:22;4.50;99.90
23813;DHT22;12087;45.190;5.688;2024-01-15T08:51:45;4.50;99.90
23813;DHT22;12087;45.190;5.688;2024-01-15T08:57:08;4.50;99.90
23813;DHT22;12087;45.190;5.688;2024-01-15T09:02:32;4.50;99.90
23813;DHT22;12087;45.190;5.688;2024-01-15T09:07:55;4.50;99.90
23813;DHT22;12087;45.190;5.688;2024-01-15T09:13:19;4.50;99.90
23813;DHT22;12087;45.190;5.688;2024-01-15T09:18:46;4.50;99.90
23813;DHT22;12087;45.190;5.688;2024-01-15T09:24:08;4.60;99.90
23813;DHT22;12087;45.190;5.688;2024-01-15T09:29:31;4.60;99.90
23813;DHT22;12087;45.190;5.688;2024-01-15T09:34:54;4.60;99.90
23813;DHT22;12087;45.190;5.688;2024-01-15T09:40:17;4.60;99.90
23813;DHT22;12087;45.190;5.688;2024-01-15T09:45:42;4.60;99.90
23813;DHT22;12087;45.190;5.688;2024-01-15T09:51:06;4.60;99.90
23813;DHT22;12087;45.190;5.688;2024-01-15T09:56:32;4.60;99.90
23813;DHT22;12087;45.190;5.688;2024-01-15T10:01:59;4.60;99.90
23813;DHT22;12087;45.190;5.688;2024-01-15T10:07:27;4.70;99.90
23813;DHT22;12087;45.190;5.688;2024-01-15T10:12:51;4.80;99.90
23813;DHT22;12087;45.190;5.688;2024-01-15T10:18:14;4.70;99.90
23813;DHT22;12087;45.190;5.688;2024-01-15T10:23:38;4.80;99.90
23813;DHT22;12087;45.190;5.688;2024-01-15T10:29:01;4.80;99.90
23813;DHT22;12087;45.190;5.688;2024-01-15T10:34:24;4.90;99.90
23813;DHT22;12087;45.190;5.688;2024-01-15T10:39:49;4.90;99.90
23813;DHT22;12087;45.190;5.688;2024-01-15T10:45:12;5.00;99.90
23813;DHT22;12087;45.190;5.688;2024-01-15T10:50:34;5.00;99.90
23813;DHT22;12087;45.190;5.688;2024-01-15T10:55:58;5.10;99.90
23813;DHT22;12087;45.190;5.688;2024-01-15T11:01:22;5.20;99.90
23813;DHT22;12087;45.190;5.688;2024-01-15T11:06:45;5.20;99.90
23813;DHT22;12087;45.190;5.688;2024-01-15T11:12:10;5.20;99.90
23813;DHT22;12087;45.190;5.688;2024-01-15T11:18:00;5.30;99.90
23813;DHT22;12087;45.190;5.688;2024-01-15T11:23:43;5.40;99.90
23813;DHT22;12087;45.190;5.688;2024-01-15T11:29:10;5.40;99.90
23813;DHT22;12087;45.190;5.688;2024-01-15T11:34:52;5.50;99.90
23813;DHT22;12087;45.190;5.688;2024-01-15T11:40:18;5.50;99.90
23813;DHT22;12087;45.190;5.688;2024-01-15T11:45:41;5.50;99.90
23813;DHT22;12087;45.190;5.688;2024-01-15T11:51:04;5.50;99.90
23813;DHT22;12087;45.190;5.688;2024-01-15T11:56:26;5.60;99.90
23813;DHT22;12087;45.190;5.688;2024-01-15T12:01:50;5.60;99.90
23813;DHT22;12087;45.190;5.688;2024-01-15T12:07:12;5.60;99.90
23813;DHT22;12087;45.190;5.688;2024-01-15T12:12:44;5.60;99.90
23813;DHT22;12087;45.190;5.688;2024-01-15T12:18:13;5.60;99.90
23813;DHT22;12087;45.190;5.688;2024-01-15T12:23:35;5.60;99.90
23813;DHT22;12087;45.190;5.688;2024-01-15T12:28:58;5.60;99.90
23813;DHT22;12087;45.190;5.688;2024-01-15T12:34:24;5.70;99.90
23813;DHT22;12087;45.190;5.688;2024-01-15T12:39:52;5.70;99.90
23813;DHT22;12087;45.190;5.688;2024-01-15T12:45:15;5.70;99.90
23813;DHT22;12087;45.190;5.688;2024-01-15T12:50:39;5.80;99.90
23813;DHT22;12087;45.190;5.688;2024-01-15T12:56:01;5.80;99.90
23813;DHT22;12087;45.190;5.688;2024-01-15T13:01:24;5.80;99.90
23813;DHT22;12087;45.190;5.688;2024-01-15T13:06:49;5.80;99.90
23813;DHT22;12087;45.190;5.688;2024-01-15T13:12:11;5.80;99.90
23813;DHT22;12087;45.190;5.688;2024-01-15T13:17:33;5.80;99.90
23813;DHT22;12087;45.190;5.688;2024-01-15T13:22:57;5.80;99.90
23813;DHT22;12087;45.190;5.688;2024-01-15T13:28:19;5.80;99.90
23813;DHT22;12087;45.190;5.688;2024-01-15T13:33:42;5.80;99.90
23813;DHT22;12087;45.190;5.688;2024-01-15T13:39:05;5.80;99.90
23813;DHT22;12087;45.190;5.688;2024-01-15T13:44:29;5.80;99.90
23813;DHT22;12087;45.190;5.688;2024-01-15T13:49:51;5.80;99.90
23813;DHT22;12087;45.190;5.688;2024-01-15T13:55:15;5.70;99.90
23813;DHT22;12087;45.190;5.688;2024-01-15T14:00:38;5.80;99.90
23813;DHT22;12087;45.190;5.688;2024-01-15T14:06:01;5.80;99.90
23813;DHT22;12087;45.190;5.688;2024-01-15T14:11:26;5.80;99.90
23813;DHT22;12087;45.190;5.688;2024-01-15T14:16:49;5.80;99.90
23813;DHT22;12087;45.190;5.688;2024-01-15T14:22:11;5.80;99.90
23813;DHT22;12087;45.190;5.688;2024-01-15T14:27:35;5.80;99.90
23813;DHT22;12087;45.190;5.688;2024-01-15T14:32:57;5.80;99.90
23813;DHT22;12087;45.190;5.688;2024-01-15T14:38:19;5.80;99.90
23813;DHT22;12087;45.190;5.688;2024-01-15T14:43:43;5.80;99.90
23813;DHT22;12087;45.190;5.688;2024-01-15T14:49:05;5.80;99.90
23813;DHT22;12087;45.190;5.688;2024-01-15T14:54:28;5.80;99.90
23813;DHT22;12087;45.190;5.688;2024-01-15T14:59:51;5.80;99.90
23813;DHT22;12087;45.190;5.688;2024-01-15T15:05:14;5.80;99.90
23813;DHT22;12087;45.190;5.688;2024-01-15T15:10:37;5.80;99.90
23813;DHT22;12087;45.190;5.688;2024-01-15T15:16:02;5.80;99.90
23813;DHT22;12087;45.190;5.688;2024-01-15T15:21:26;5.90;99.90
23813;DHT22;12087;45.190;5.688;2024-01-15T15:26:50;5.90;99.90
23813;DHT22;12087;45.190;5.688;2024-01-15T15:32:14;5.90;99.90
23813;DHT22;12087;45.190;5.688;2024-01-15T15:37:36;5.80;99.90
23813;DHT22;12087;45.190;5.688;2024-01-15T15:42:58;5.90;99.90
23813;DHT22;12087;45.190;5.688;2024-01-15T15:48:23;5.90;99.90
23813;DHT22;12087;45.190;5.688;2024-01-15T15:53:45;5.90;99.90
23813;DHT22;12087;45.190;5.688;2024-01-15T15:59:07;5.90;99.90
23813;DHT22;12087;45.190;5.688;2024-01-15T16:04:31;5.90;99.90
23813;DHT22;12087;45.190;5.688;2024-01-15T16:09:54;5.90;99.90
23813;DHT22;12087;45.190;5.688;2024-01-15T16:15:20;5.90;99.90
23813;DHT22;12087;45.190;5.688;2024-01-15T16:20:44;5.90;99.90
23813;DHT22;12087;45.190;5.688;2024-01-15T16:26:06;5.90;99.90
23813;DHT22;12087;45.190;5.688;2024-01-15T16:31:29;5.90;99.90
23813;DHT22;12087;45.190;5.688;2024-01-15T16:36:53;5.90;99.90
23813;DHT22;12087;45.190;5.688;2024-01-15T16:42:15;5.90;99.90
23813;DHT22;12087;45.190;5.688;2024-01-15T16:47:38;5.90;99.90
23813;DHT22;12087;45.190;5.688;2024-01-15T16:53:02;5.90;99.90
23813;DHT22;12087;45.190;5.688;2024-01-15T16:58:29;5.90;99.90
23813;DHT22;12087;45.190;5.688;2024-01-15T17:03:51;5.90;99.90
23813;DHT22;12087;45.190;5.688;2024-01-15T17:09:15;5.90;99.90
23813;DHT22;12087;45.190;5.688;2024-01-15T17:14:37;5.90;99.90
23813;DHT22;12087;45.190;5.688;2024-01-15T17:20:00;5.80;99.90
23813;DHT22;12087;45.190;5.688;2024-01-15T17:25:23;5.80;99.90
23813;DHT22;12087;45.190;5.688;2024-01-15T17:30:46;5.80;99.90
23813;DHT22;12087;45.190;5.688;2024-01-15T17:36:08;5.80;99.90
23813;DHT22;12087;45.190;5.688;2024-01-15T17:41:31;5.80;99.90
23813;DHT22;12087;45.190;5.688;2024-01-15T17:46:54;5.80;99.90
23813;DHT22;12087;45.190;5.688;2024-01-15T17:52:16;5.70;99.90
23813;DHT22;12087;45.190;5.688;2024-01-15T17:57:40;5.70;99.90
23813;DHT22;12087;45.190;5.688;2024-01-15T18:03:03;5.70;99.90
23813;DHT22;12087;45.190;5.688;2024-01-15T18:08:25;5.70;99.90
23813;DHT22;12087;45.190;5.688;2024-01-15T18:13:50;5.70;99.90
23813;DHT22;12087;45.190;5.688;2024-01-15T18:19:12;5.70;99.90
23813;DHT22;12087;45.190;5.688;2024-01-15T18:24:35;5.70;99.90
23813;DHT22;12087;45.190;5.688;2024-01-15T18:29:59;5.70;99.90
23813;DHT22;12087;45.190;5.688;2024-01-15T18:35:21;5.80;99.90
23813;DHT22;12087;45.190;5.688;2024-01-15T18:40:44;5.80;99.90
23813;DHT22;12087;45.190;5.688;2024-01-15T19:10:59;5.80;99.90
23813;DHT22;12087;45.190;5.688;2024-01-15T19:16:21;5.80;99.90
23813;DHT22;12087;45.190;5.688;2024-01-15T19:21:44;5.80;99.90
23813;DHT22;12087;45.190;5.688;2024-01-15T19:27:07;5.70;99.90
23813;DHT22;12087;45.190;5.688;2024-01-15T19:57:33;5.70;99.90
23813;DHT22;12087;45.190;5.688;2024-01-15T20:09:20;5.60;99.90
23813;DHT22;12087;45.190;5.688;2024-01-15T20:14:45;5.60;99.90
23813;DHT22;12087;45.190;5.688;2024-01-15T20:20:08;5.60;99.90
23813;DHT22;12087;45.190;5.688;2024-01-15T20:25:31;5.60;99.90
23813;DHT22;12087;45.190;5.688;2024-01-15T20:30:55;5.50;99.90
23813;DHT22;12087;45.190;5.688;2024-01-15T20:36:17;5.50;99.90
23813;DHT22;12087;45.190;5.688;2024-01-15T22:47:50;5.30;99.90
23813;DHT22;12087;45.190;5.688;2024-01-15T22:53:13;5.30;99.90
23813;DHT22;12087;45.190;5.688;2024-01-15T22:58:36;5.20;99.90
23813;DHT22;12087;45.190;5.688;2024-01-15T23:26:57;4.90;99.90
23813;DHT22;12087;45.190;5.688;2024-01-15T23:32:20;4.80;99.90
23813;DHT22;12087;45.190;5.688;2024-01-15T23:37:42;4.80;99.90
23813;DHT22;12087;45.190;5.688;2024-01-15T23:43:05;4.80;99.90
23813;DHT22;12087;45.190;5.688;2024-01-15T23:48:28;4.70;99.90
23813;DHT22;12087;45.190;5.688;2024-01-15T23:53:50;4.60;99.90
23813;DHT22;12087;45.190;5.688;2024-01-15T23:59:13;4.50;99.90
